sensor_id;sensor_type;location;lat;lon;timestamp;temperature;humidity
1461;DHT22;724;49.910;12.530;2023-02-18T00:01:08;7.20;99.90
1461;DHT22;724;49.910;12.530;2023-02-18T00:03:35;7.20;99.90
1461;DHT22;724;49.910;12.530;2023-02-18T00:06:09;7.20;99.90
1461;DHT22;724;49.910;12.530;2023-02-18T00:08:37;7.20;99.90
1461;DHT22;724;49.910;12.530;2023-02-18T00:11:04;7.20;99.90
1461;DHT22;724;49.910;12.530;2023-02-18T00:13:32;7.20;99.90
1461;DHT22;724;49.910;12.530;2023-02-18T00:16:00;7.20;99.90
1461;DHT22;724;49.910;12.530;2023-02-18T00:18:27;7.20;99.90
1461;DHT22;724;49.910;12.530;2023-02-18T00:20:54;7.20;99.90
1461;DHT22;724;49.910;12.530;2023-02-18T00:23:21;7.20;99.90
1461;DHT22;724;49.910;12.530;2023-02-18T00:25:47;7.20;99.90
1461;DHT22;724;49.910;12.530;2023-02-18T00:28:14;7.20;99.90
1461;DHT22;724;49.910;12.530;2023-02-18T00:30:43;7.20;99.90
1461;DHT22;724;49.910;12.530;2023-02-18T00:33:09;7.10;99.90
1461;DHT22;724;49.910;12.530;2023-02-18T00:35:36;7.10;99.90
1461;DHT22;724;49.910;12.530;2023-02-18T00:38:03;7.10;99.90
1461;DHT22;724;49.910;12.530;2023-02-18T00:40:29;7.10;99.90
1461;DHT22;724;49.910;12.530;2023-02-18T00:42:56;7.10;99.90
1461;DHT22;724;49.910;12.530;2023-02-18T00:45:23;7.10;99.90
1461;DHT22;724;49.910;12.530;2023-02-18T00:47:51;7.10;99.90
1461;DHT22;724;49.910;12.530;2023-02-18T00:50:18;7.00;99.90
1461;DHT22;724;49.910;12.530;2023-02-18T00:52:44;7.00;99.90
1461;DHT22;724;49.910;12.530;2023-02-18T00:55:11;7.00;99.90
1461;DHT22;724;49.910;12.530;2023-02-18T00:57:38;7.00;99.90
1461;DHT22;724;49.910;12.530;2023-02-18T01:00:07;7.00;99.90
1461;DHT22;724;49.910;12.530;2023-02-18T01:02:34;7.00;99.90
1461;DHT22;724;49.910;12.530;2023-02-18T01:05:02;7.00;99.90
1461;DHT22;724;49.910;12.530;2023-02-18T01:07:29;7.00;99.90
1461;DHT22;724;49.910;12.530;2023-02-18T01:09:56;6.90;99.90
1461;DHT22;724;49.910;12.530;2023-02-18T01:12:22;6.90;99.90
1461;DHT22;724;49.910;12.530;2023-02-18T01:14:49;7.00;99.90
1461;DHT22;724;49.910;12.530;2023-02-18T01:17:16;7.00;99.90
1461;DHT22;724;49.910;12.530;2023-02-18T01:19:43;6.90;99.90
1461;DHT22;724;49.910;12.530;2023-02-18T01:22:11;6.90;99.90
1461;DHT22;724;49.910;12.530;2023-02-18T01:24:37;6.90;99.90
1461;DHT22;724;49.910;12.530;2023-02-18T01:27:04;6.90;99.90
1461;DHT22;724;49.910;12.530;2023-02-18T01:29:31;6.90;99.90
1461;DHT22;724;49.910;12.530;2023-02-18T01:31:58;6.90;99.90
1461;DHT22;724;49.910;12.530;2023-02-18T01:34:24;6.90;99.90
1461;DHT22;724;49.910;12.530;2023-02-18T01:36:51;6.90;99.90
1461;DHT22;724;49.910;12.530;2023-02-18T01:39:19;6.90;99.90
1461;DHT22;724;49.910;12.530;2023-02-18T01:41:46;6.90;99.90
1461;DHT22;724;49.910;12.530;2023-02-18T01:44:15;6.90;99.90
1461;DHT22;724;49.910;12.530;2023-02-18T01:46:42;6.90;99.90
1461;DHT22;724;49.910;12.530;2023-02-18T01:49:12;6.80;99.90
1461;DHT22;724;49.910;12.530;2023-02-18T01:51:43;6.80;99.90
1461;DHT22;724;49.910;12.530;2023-02-18T01:54:15;6.80;99.90
1461;DHT22;724;49.910;12.530;2023-02-18T01:56:47;6.80;99.90
1461;DHT22;724;49.910;12.530;2023-02-18T01:59:17;6.80;99.90
1461;DHT22;724;49.910;12.530;2023-02-18T02:01:46;6.80;99.90
1461;DHT22;724;49.910;12.530;2023-02-18T02:04:13;6.70;99.90
1461;DHT22;724;49.910;12.530;2023-02-18T02:06:40;6.70;99.90
1461;DHT22;724;49.910;12.530;2023-02-18T02:09:10;6.70;99.90
1461;DHT22;724;49.910;12.530;2023-02-18T02:11:53;6.70;99.90
1461;DHT22;724;49.910;12.530;2023-02-18T02:14:37;6.70;99.90
1461;DHT22;724;49.910;12.530;2023-02-18T02:17:10;6.70;99.90
1461;DHT22;724;49.910;12.530;2023-02-18T02:20:10;6.70;99.90
1461;DHT22;724;49.910;12.530;2023-02-18T02:26:03;6.60;99.90
1461;DHT22;724;49.910;12.530;2023-02-18T02:28:55;6.70;99.90
1461;DHT22;724;49.910;12.530;2023-02-18T02:31:58;6.70;99.90
1461;DHT22;724;49.910;12.530;2023-02-18T02:34:47;6.70;99.90
1461;DHT22;724;49.910;12.530;2023-02-18T02:37:20;6.70;99.90
1461;DHT22;724;49.910;12.530;2023-02-18T02:39:56;6.70;99.90
1461;DHT22;724;49.910;12.530;2023-02-18T02:42:38;6.70;99.90
1461;DHT22;724;49.910;12.530;2023-02-18T02:45:10;6.70;99.90
1461;DHT22;724;49.910;12.530;2023-02-18T02:47:47;6.70;99.90
1461;DHT22;724;49.910;12.530;2023-02-18T02:50:19;6.70;99.90
1461;DHT22;724;49.910;12.530;2023-02-18T02:52:51;6.80;99.90
1461;DHT22;724;49.910;12.530;2023-02-18T02:55:20;6.70;99.90
1461;DHT22;724;49.910;12.530;2023-02-18T02:57:49;6.70;99.90
1461;DHT22;724;49.910;12.530;2023-02-18T03:00:17;6.70;99.90
1461;DHT22;724;49.910;12.530;2023-02-18T03:02:58;6.70;99.90
1461;DHT22;724;49.910;12.530;2023-02-18T03:05:37;6.70;99.90
1461;DHT22;724;49.910;12.530;2023-02-18T03:08:15;6.80;99.90
1461;DHT22;724;49.910;12.530;2023-02-18T03:10:49;6.80;99.90
1461;DHT22;724;49.910;12.530;2023-02-18T03:13:28;6.80;99.90
1461;DHT22;724;49.910;12.530;2023-02-18T03:16:04;6.80;99.90
1461;DHT22;724;49.910;12.530;2023-02-18T03:18:35;6.80;99.90
1461;DHT22;724;49.910;12.530;2023-02-18T03:21:07;6.80;99.90
1461;DHT22;724;49.910;12.530;2023-02-18T03:23:37;6.80;99.90
1461;DHT22;724;49.910;12.530;2023-02-18T03:26:06;6.80;99.90
1461;DHT22;724;49.910;12.530;2023-02-18T03:28:34;6.80;99.90
1461;DHT22;724;49.910;12.530;2023-02-18T03:31:04;6.80;99.90
1461;DHT22;724;49.910;12.530;2023-02-18T03:33:36;6.80;99.90
1461;DHT22;724;49.910;12.530;2023-02-18T03:36:06;6.80;99.90
1461;DHT22;724;49.910;12.530;2023-02-18T03:38:38;6.70;99.90
1461;DHT22;724;49.910;12.530;2023-02-18T03:41:05;6.70;99.90
1461;DHT22;724;49.910;12.530;2023-02-18T03:43:33;6.70;99.90
1461;DHT22;724;49.910;12.530;2023-02-18T03:46:00;6.80;99.90
1461;DHT22;724;49.910;12.530;2023-02-18T03:48:27;6.80;99.90
1461;DHT22;724;49.910;12.530;2023-02-18T03:50:53;6.70;99.90
1461;DHT22;724;49.910;12.530;2023-02-18T03:53:21;6.80;99.90
1461;DHT22;724;49.910;12.530;2023-02-18T03:55:48;6.80;99.90
1461;DHT22;724;49.910;12.530;2023-02-18T03:58:15;6.80;99.90
1461;DHT22;724;49.910;12.530;2023-02-18T04:00:42;6.80;99.90
1461;DHT22;724;49.910;12.530;2023-02-18T04:03:08;6.70;99.90
1461;DHT22;724;49.910;12.530;2023-02-18T04:05:35;6.70;99.90
1461;DHT22;724;49.910;12.530;2023-02-18T04:08:02;6.80;99.90
1461;DHT22;724;49.910;12.530;2023-02-18T04:10:31;6.80;99.90
1461;DHT22;724;49.910;12.530;2023-02-18T04:12:58;6.80;99.90
1461;DHT22;724;49.910;12.530;2023-02-18T04:15:25;6.80;99.90
1461;DHT22;724;49.910;12.530;2023-02-18T04:17:51;6.80;99.90
1461;DHT22;724;49.910;12.530;2023-02-18T04:20:18;6.70;99.90
1461;DHT22;724;49.910;12.530;2023-02-18T04:22:47;6.80;99.90
1461;DHT22;724;49.910;12.530;2023-02-18T04:25:13;6.80;99.90
1461;DHT22;724;49.910;12.530;2023-02-18T04:27:41;6.80;99.90
1461;DHT22;724;49.910;12.530;2023-02-18T04:30:09;6.80;99.90
1461;DHT22;724;49.910;12.530;2023-02-18T04:32:35;6.80;99.90
1461;DHT22;724;49.910;12.530;2023-02-18T04:35:02;6.80;99.90
1461;DHT22;724;49.910;12.530;2023-02-18T04:37:29;6.80;99.90
1461;DHT22;724;49.910;12.530;2023-02-18T04:39:56;6.80;99.90
1461;DHT22;724;49.910;12.530;2023-02-18T04:42:23;6.80;99.90
1461;DHT22;724;49.910;12.530;2023-02-18T04:44:51;6.80;99.90
1461;DHT22;724;49.910;12.530;2023-02-18T04:47:18;6.80;99.90
1461;DHT22;724;49.910;12.530;2023-02-18T04:49:45;6.80;99.90
1461;DHT22;724;49.910;12.530;2023-02-18T04:52:12;6.80;99.90
1461;DHT22;724;49.910;12.530;2023-02-18T04:54:38;6.80;99.90
1461;DHT22;724;49.910;12.530;2023-02-18T04:57:05;6.80;99.90
1461;DHT22;724;49.910;12.530;2023-02-18T04:59:32;6.80;99.90
1461;DHT22;724;49.910;12.530;2023-02-18T05:02:00;6.70;99.90
1461;DHT22;724;49.910;12.530;2023-02-18T05:04:27;6.70;99.90
1461;DHT22;724;49.910;12.530;2023-02-18T05:06:54;6.70;99.90
1461;DHT22;724;49.910;12.530;2023-02-18T05:09:21;6.70;99.90
1461;DHT22;724;49.910;12.530;2023-02-18T05:11:48;6.70;99.90
1461;DHT22;724;49.910;12.530;2023-02-18T05:14:16;6.70;99.90
1461;DHT22;724;49.910;12.530;2023-02-18T05:16:42;6.80;99.90
1461;DHT22;724;49.910;12.530;2023-02-18T05:19:13;6.80;99.90
1461;DHT22;724;49.910;12.530;2023-02-18T05:21:40;6.80;99.90
1461;DHT22;724;49.910;12.530;2023-02-18T05:24:08;6.80;99.90
1461;DHT22;724;49.910;12.530;2023-02-18T05:26:35;6.80;99.90
1461;DHT22;724;49.910;12.530;2023-02-18T05:29:02;6.80;99.90
1461;DHT22;724;49.910;12.530;2023-02-18T05:31:29;6.80;99.90
1461;DHT22;724;49.910;12.530;2023-02-18T05:33:56;6.90;99.90
1461;DHT22;724;49.910;12.530;2023-02-18T05:36:24;6.90;99.90
1461;DHT22;724;49.910;12.530;2023-02-18T05:38:51;6.90;99.90
1461;DHT22;724;49.910;12.530;2023-02-18T05:41:17;6.90;99.90
1461;DHT22;724;49.910;12.530;2023-02-18T05:43:45;6.90;99.90
1461;DHT22;724;49.910;12.530;2023-02-18T05:46:29;6.90;99.90
1461;DHT22;724;49.910;12.530;2023-02-18T05:48:55;6.80;99.90
1461;DHT22;724;49.910;12.530;2023-02-18T05:51:23;6.90;99.90
1461;DHT22;724;49.910;12.530;2023-02-18T05:53:50;6.90;99.90
1461;DHT22;724;49.910;12.530;2023-02-18T05:56:17;6.90;99.90
1461;DHT22;724;49.910;12.530;2023-02-18T05:58:44;6.90;99.90
1461;DHT22;724;49.910;12.530;2023-02-18T06:01:11;6.90;99.90
1461;DHT22;724;49.910;12.530;2023-02-18T06:03:37;6.90;99.90
1461;DHT22;724;49.910;12.530;2023-02-18T06:06:05;6.90;99.90
1461;DHT22;724;49.910;12.530;2023-02-18T06:08:33;6.90;99.90
1461;DHT22;724;49.910;12.530;2023-02-18T06:11:01;6.90;99.90
1461;DHT22;724;49.910;12.530;2023-02-18T06:13:27;6.90;99.90
1461;DHT22;724;49.910;12.530;2023-02-18T06:15:54;7.00;99.90
1461;DHT22;724;49.910;12.530;2023-02-18T06:18:21;7.00;99.90
1461;DHT22;724;49.910;12.530;2023-02-18T06:20:48;7.00;99.90
1461;DHT22;724;49.910;12.530;2023-02-18T06:23:15;7.00;99.90
1461;DHT22;724;49.910;12.530;2023-02-18T06:25:43;7.00;99.90
1461;DHT22;724;49.910;12.530;2023-02-18T06:28:10;7.00;99.90
1461;DHT22;724;49.910;12.530;2023-02-18T06:30:37;7.10;99.90
1461;DHT22;724;49.910;12.530;2023-02-18T06:33:04;7.10;99.90
1461;DHT22;724;49.910;12.530;2023-02-18T06:35:31;7.10;99.90
1461;DHT22;724;49.910;12.530;2023-02-18T06:37:57;7.10;99.90
1461;DHT22;724;49.910;12.530;2023-02-18T06:40:24;7.10;99.90
1461;DHT22;724;49.910;12.530;2023-02-18T06:42:52;7.10;99.90
1461;DHT22;724;49.910;12.530;2023-02-18T06:45:20;7.10;99.90
1461;DHT22;724;49.910;12.530;2023-02-18T06:47:47;7.20;99.90
1461;DHT22;724;49.910;12.530;2023-02-18T06:50:14;7.20;99.90
1461;DHT22;724;49.910;12.530;2023-02-18T06:52:41;7.20;99.90
1461;DHT22;724;49.910;12.530;2023-02-18T06:55:08;7.20;99.90
1461;DHT22;724;49.910;12.530;2023-02-18T06:57:35;7.20;99.90
1461;DHT22;724;49.910;12.530;2023-02-18T07:00:03;7.20;99.90
1461;DHT22;724;49.910;12.530;2023-02-18T07:02:30;7.20;99.90
1461;DHT22;724;49.910;12.530;2023-02-18T07:04:57;7.20;99.90
1461;DHT22;724;49.910;12.530;2023-02-18T07:07:24;7.20;99.90
1461;DHT22;724;49.910;12.530;2023-02-18T07:09:50;7.30;99.90
1461;DHT22;724;49.910;12.530;2023-02-18T07:12:17;7.30;99.90
1461;DHT22;724;49.910;12.530;2023-02-18T07:14:44;7.40;99.90
1461;DHT22;724;49.910;12.530;2023-02-18T07:17:12;7.30;99.90
1461;DHT22;724;49.910;12.530;2023-02-18T07:19:39;7.30;99.90
1461;DHT22;724;49.910;12.530;2023-02-18T07:22:06;7.20;99.90
1461;DHT22;724;49.910;12.530;2023-02-18T07:24:33;7.30;99.90
1461;DHT22;724;49.910;12.530;2023-02-18T07:27:00;7.30;99.90
1461;DHT22;724;49.910;12.530;2023-02-18T07:29:26;7.30;99.90
1461;DHT22;724;49.910;12.530;2023-02-18T07:31:53;7.30;99.90
1461;DHT22;724;49.910;12.530;2023-02-18T07:34:22;7.30;99.90
1461;DHT22;724;49.910;12.530;2023-02-18T07:36:48;7.30;99.90
1461;DHT22;724;49.910;12.530;2023-02-18T07:39:15;7.30;99.90
1461;DHT22;724;49.910;12.530;2023-02-18T07:41:45;7.30;99.90
1461;DHT22;724;49.910;12.530;2023-02-18T07:44:12;7.30;99.90
1461;DHT22;724;49.910;12.530;2023-02-18T07:46:39;7.30;99.90
1461;DHT22;724;49.910;12.530;2023-02-18T07:49:06;7.30;99.90
1461;DHT22;724;49.910;12.530;2023-02-18T07:51:34;7.30;99.90
1461;DHT22;724;49.910;12.530;2023-02-18T07:54:03;7.30;99.90
1461;DHT22;724;49.910;12.530;2023-02-18T07:56:29;7.30;99.90
1461;DHT22;724;49.910;12.530;2023-02-18T07:58:56;7.30;99.90
1461;DHT22;724;49.910;12.530;2023-02-18T08:01:23;7.30;99.90
1461;DHT22;724;49.910;12.530;2023-02-18T08:03:50;7.30;99.90
1461;DHT22;724;49.910;12.530;2023-02-18T08:06:21;7.30;99.90
1461;DHT22;724;49.910;12.530;2023-02-18T08:08:51;7.40;99.90
1461;DHT22;724;49.910;12.530;2023-02-18T08:11:18;7.40;99.90
1461;DHT22;724;49.910;12.530;2023-02-18T08:13:45;7.40;99.90
1461;DHT22;724;49.910;12.530;2023-02-18T08:16:11;7.40;99.90
1461;DHT22;724;49.910;12.530;2023-02-18T08:18:38;7.40;99.90
1461;DHT22;724;49.910;12.530;2023-02-18T08:21:05;7.50;99.90
1461;DHT22;724;49.910;12.530;2023-02-18T08:23:32;7.50;99.90
1461;DHT22;724;49.910;12.530;2023-02-18T08:26:00;7.50;99.90
1461;DHT22;724;49.910;12.530;2023-02-18T08:28:27;7.60;99.90
1461;DHT22;724;49.910;12.530;2023-02-18T08:30:54;7.60;99.90
1461;DHT22;724;49.910;12.530;2023-02-18T08:33:21;7.60;99.90
1461;DHT22;724;49.910;12.530;2023-02-18T08:35:50;7.60;99.90
1461;DHT22;724;49.910;12.530;2023-02-18T08:38:17;7.60;99.90
1461;DHT22;724;49.910;12.530;2023-02-18T08:40:44;7.70;99.90
1461;DHT22;724;49.910;12.530;2023-02-18T08:43:13;7.70;99.90
1461;DHT22;724;49.910;12.530;2023-02-18T08:45:41;7.70;99.90
1461;DHT22;724;49.910;12.530;2023-02-18T08:48:09;7.80;99.90
1461;DHT22;724;49.910;12.530;2023-02-18T08:50:36;7.80;99.90
1461;DHT22;724;49.910;12.530;2023-02-18T08:53:03;7.70;99.90
1461;DHT22;724;49.910;12.530;2023-02-18T08:55:31;7.80;99.90
1461;DHT22;724;49.910;12.530;2023-02-18T08:57:58;7.80;99.90
1461;DHT22;724;49.910;12.530;2023-02-18T09:00:26;7.80;99.90
1461;DHT22;724;49.910;12.530;2023-02-18T09:02:53;7.70;99.90
1461;DHT22;724;49.910;12.530;2023-02-18T09:05:20;7.70;99.90
1461;DHT22;724;49.910;12.530;2023-02-18T09:07:47;7.70;99.90
1461;DHT22;724;49.910;12.530;2023-02-18T09:10:15;7.70;99.90
1461;DHT22;724;49.910;12.530;2023-02-18T09:12:42;7.60;99.90
1461;DHT22;724;49.910;12.530;2023-02-18T09:15:08;7.50;99.90
1461;DHT22;724;49.910;12.530;2023-02-18T09:17:36;7.50;99.90
1461;DHT22;724;49.910;12.530;2023-02-18T09:20:04;7.50;99.90
1461;DHT22;724;49.910;12.530;2023-02-18T09:22:31;7.40;99.90
1461;DHT22;724;49.910;12.530;2023-02-18T09:24:58;7.40;99.90
1461;DHT22;724;49.910;12.530;2023-02-18T09:27:25;7.40;99.90
1461;DHT22;724;49.910;12.530;2023-02-18T09:29:51;7.40;99.90
1461;DHT22;724;49.910;12.530;2023-02-18T09:32:18;7.40;99.90
1461;DHT22;724;49.910;12.530;2023-02-18T09:34:46;7.40;99.90
1461;DHT22;724;49.910;12.530;2023-02-18T09:37:13;7.50;99.90
1461;DHT22;724;49.910;12.530;2023-02-18T09:39:40;7.50;99.90
1461;DHT22;724;49.910;12.530;2023-02-18T09:42:12;7.50;99.90
1461;DHT22;724;49.910;12.530;2023-02-18T09:44:43;7.60;99.90
1461;DHT22;724;49.910;12.530;2023-02-18T09:47:12;7.60;99.90
1461;DHT22;724;49.910;12.530;2023-02-18T09:49:44;7.60;99.90
1461;DHT22;724;49.910;12.530;2023-02-18T09:52:18;7.70;99.90
1461;DHT22;724;49.910;12.530;2023-02-18T09:54:45;7.80;99.90
1461;DHT22;724;49.910;12.530;2023-02-18T09:57:20;7.80;99.90
1461;DHT22;724;49.910;12.530;2023-02-18T09:59:55;7.70;99.90
1461;DHT22;724;49.910;12.530;2023-02-18T10:02:23;7.70;99.90
1461;DHT22;724;49.910;12.530;2023-02-18T10:04:50;7.60;99.90
1461;DHT22;724;49.910;12.530;2023-02-18T10:07:23;7.60;99.90
1461;DHT22;724;49.910;12.530;2023-02-18T10:09:53;7.60;99.90
1461;DHT22;724;49.910;12.530;2023-02-18T10:12:22;7.50;99.90
1461;DHT22;724;49.910;12.530;2023-02-18T10:14:51;7.60;99.90
1461;DHT22;724;49.910;12.530;2023-02-18T10:17:20;7.50;99.90
1461;DHT22;724;49.910;12.530;2023-02-18T10:19:50;7.50;98.50
1461;DHT22;724;49.910;12.530;2023-02-18T10:22:19;7.50;83.10
1461;DHT22;724;49.910;12.530;2023-02-18T10:24:50;7.50;25.70
1461;DHT22;724;49.910;12.530;2023-02-18T10:27:22;7.50;1.00
1461;DHT22;724;49.910;12.530;2023-02-18T10:29:50;7.50;1.00
1461;DHT22;724;49.910;12.530;2023-02-18T10:32:21;7.50;1.00
1461;DHT22;724;49.910;12.530;2023-02-18T10:34:52;7.60;1.00
1461;DHT22;724;49.910;12.530;2023-02-18T10:37:37;7.60;1.00
1461;DHT22;724;49.910;12.530;2023-02-18T10:40:13;7.70;1.00
1461;DHT22;724;49.910;12.530;2023-02-18T10:42:52;7.80;99.90
1461;DHT22;724;49.910;12.530;2023-02-18T10:45:28;8.00;1.00
1461;DHT22;724;49.910;12.530;2023-02-18T10:48:09;8.10;1.00
1461;DHT22;724;49.910;12.530;2023-02-18T10:50:39;8.60;1.00
1461;DHT22;724;49.910;12.530;2023-02-18T10:53:13;8.70;99.90
1461;DHT22;724;49.910;12.530;2023-02-18T10:55:43;8.80;1.00
1461;DHT22;724;49.910;12.530;2023-02-18T10:58:31;8.80;1.00
1461;DHT22;724;49.910;12.530;2023-02-18T11:01:00;9.00;1.00
1461;DHT22;724;49.910;12.530;2023-02-18T11:03:40;8.50;1.00
1461;DHT22;724;49.910;12.530;2023-02-18T11:06:15;8.50;1.00
1461;DHT22;724;49.910;12.530;2023-02-18T11:08:46;8.50;1.00
1461;DHT22;724;49.910;12.530;2023-02-18T11:11:16;8.50;1.00
1461;DHT22;724;49.910;12.530;2023-02-18T11:13:51;8.50;1.00
1461;DHT22;724;49.910;12.530;2023-02-18T11:16:21;8.50;1.00
1461;DHT22;724;49.910;12.530;2023-02-18T11:18:48;8.50;1.00
1461;DHT22;724;49.910;12.530;2023-02-18T11:21:23;8.80;1.00
1461;DHT22;724;49.910;12.530;2023-02-18T11:23:53;8.60;99.90
1461;DHT22;724;49.910;12.530;2023-02-18T11:26:26;8.60;99.90
1461;DHT22;724;49.910;12.530;2023-02-18T11:28:59;8.50;99.90
1461;DHT22;724;49.910;12.530;2023-02-18T11:31:36;8.50;99.90
1461;DHT22;724;49.910;12.530;2023-02-18T11:34:05;8.30;99.90
1461;DHT22;724;49.910;12.530;2023-02-18T11:36:34;8.30;1.00
1461;DHT22;724;49.910;12.530;2023-02-18T11:39:05;8.40;1.00
1461;DHT22;724;49.910;12.530;2023-02-18T11:41:42;8.50;99.90
1461;DHT22;724;49.910;12.530;2023-02-18T11:44:18;9.10;99.90
1461;DHT22;724;49.910;12.530;2023-02-18T11:46:56;10.10;94.50
1461;DHT22;724;49.910;12.530;2023-02-18T11:49:24;9.90;1.00
1461;DHT22;724;49.910;12.530;2023-02-18T11:51:51;10.10;1.00
1461;DHT22;724;49.910;12.530;2023-02-18T11:54:25;9.70;1.00
1461;DHT22;724;49.910;12.530;2023-02-18T11:56:56;9.20;1.00
1461;DHT22;724;49.910;12.530;2023-02-18T11:59:24;9.00;1.00
1461;DHT22;724;49.910;12.530;2023-02-18T12:01:54;8.90;1.00
1461;DHT22;724;49.910;12.530;2023-02-18T12:04:28;9.00;1.00
1461;DHT22;724;49.910;12.530;2023-02-18T12:07:05;8.80;1.00
1461;DHT22;724;49.910;12.530;2023-02-18T12:09:37;8.70;1.00
1461;DHT22;724;49.910;12.530;2023-02-18T12:12:09;8.50;1.00
1461;DHT22;724;49.910;12.530;2023-02-18T12:14:37;8.50;1.00
1461;DHT22;724;49.910;12.530;2023-02-18T12:17:31;8.40;1.00
1461;DHT22;724;49.910;12.530;2023-02-18T12:20:26;8.30;1.00
1461;DHT22;724;49.910;12.530;2023-02-18T12:23:05;8.40;1.00
1461;DHT22;724;49.910;12.530;2023-02-18T12:25:43;8.50;1.00
1461;DHT22;724;49.910;12.530;2023-02-18T12:28:26;8.60;99.90
1461;DHT22;724;49.910;12.530;2023-02-18T12:31:13;8.50;99.90
1461;DHT22;724;49.910;12.530;2023-02-18T12:33:53;8.40;99.90
1461;DHT22;724;49.910;12.530;2023-02-18T12:36:30;8.40;99.90
1461;DHT22;724;49.910;12.530;2023-02-18T12:39:13;8.40;99.90
1461;DHT22;724;49.910;12.530;2023-02-18T12:41:55;8.40;99.90
1461;DHT22;724;49.910;12.530;2023-02-18T12:44:31;8.30;99.90
1461;DHT22;724;49.910;12.530;2023-02-18T12:47:12;8.30;99.90
1461;DHT22;724;49.910;12.530;2023-02-18T12:50:02;8.30;99.90
1461;DHT22;724;49.910;12.530;2023-02-18T12:52:37;8.30;99.90
1461;DHT22;724;49.910;12.530;2023-02-18T12:55:25;8.40;99.90
1461;DHT22;724;49.910;12.530;2023-02-18T12:58:02;8.40;92.20
1461;DHT22;724;49.910;12.530;2023-02-18T13:07:07;8.30;93.40
1461;DHT22;724;49.910;12.530;2023-02-18T13:09:46;8.30;73.00
1461;DHT22;724;49.910;12.530;2023-02-18T13:12:19;8.20;70.60
1461;DHT22;724;49.910;12.530;2023-02-18T13:14:53;8.30;82.10
1461;DHT22;724;49.910;12.530;2023-02-18T13:17:29;8.40;78.30
1461;DHT22;724;49.910;12.530;2023-02-18T13:20:04;8.40;54.80
1461;DHT22;724;49.910;12.530;2023-02-18T13:22:32;8.40;76.70
1461;DHT22;724;49.910;12.530;2023-02-18T13:25:00;8.50;1.00
1461;DHT22;724;49.910;12.530;2023-02-18T13:27:30;8.50;1.00
1461;DHT22;724;49.910;12.530;2023-02-18T13:30:15;8.60;1.00
1461;DHT22;724;49.910;12.530;2023-02-18T13:32:50;8.60;1.00
1461;DHT22;724;49.910;12.530;2023-02-18T13:35:21;8.50;1.00
1461;DHT22;724;49.910;12.530;2023-02-18T13:38:01;8.60;1.00
1461;DHT22;724;49.910;12.530;2023-02-18T13:40:30;8.50;1.00
1461;DHT22;724;49.910;12.530;2023-02-18T13:43:16;8.60;1.00
1461;DHT22;724;49.910;12.530;2023-02-18T13:46:02;8.60;1.00
1461;DHT22;724;49.910;12.530;2023-02-18T13:48:32;8.60;1.00
1461;DHT22;724;49.910;12.530;2023-02-18T13:51:01;8.60;1.00
1461;DHT22;724;49.910;12.530;2023-02-18T13:53:30;8.50;1.00
1461;DHT22;724;49.910;12.530;2023-02-18T13:56:01;8.50;1.00
1461;DHT22;724;49.910;12.530;2023-02-18T13:58:34;8.50;1.00
1461;DHT22;724;49.910;12.530;2023-02-18T14:01:19;8.50;1.00
1461;DHT22;724;49.910;12.530;2023-02-18T14:03:55;8.40;1.00
1461;DHT22;724;49.910;12.530;2023-02-18T14:06:24;8.40;1.00
1461;DHT22;724;49.910;12.530;2023-02-18T14:11:48;8.30;1.00
1461;DHT22;724;49.910;12.530;2023-02-18T14:14:35;8.30;1.00
1461;DHT22;724;49.910;12.530;2023-02-18T14:17:29;8.30;1.00
1461;DHT22;724;49.910;12.530;2023-02-18T14:20:30;8.20;1.00
1461;DHT22;724;49.910;12.530;2023-02-18T14:22:58;8.10;1.00
1461;DHT22;724;49.910;12.530;2023-02-18T14:25:38;8.10;1.00
1461;DHT22;724;49.910;12.530;2023-02-18T14:31:24;8.00;1.00
1461;DHT22;724;49.910;12.530;2023-02-18T14:34:17;8.00;1.00
1461;DHT22;724;49.910;12.530;2023-02-18T14:36:55;8.00;1.00
1461;DHT22;724;49.910;12.530;2023-02-18T14:39:37;8.00;1.00
1461;DHT22;724;49.910;12.530;2023-02-18T14:42:14;7.90;1.00
1461;DHT22;724;49.910;12.530;2023-02-18T14:45:02;8.00;1.00
1461;DHT22;724;49.910;12.530;2023-02-18T14:47:39;7.90;1.00
1461;DHT22;724;49.910;12.530;2023-02-18T14:50:15;7.90;1.00
1461;DHT22;724;49.910;12.530;2023-02-18T14:52:46;7.80;1.00
1461;DHT22;724;49.910;12.530;2023-02-18T14:55:18;7.80;1.00
1461;DHT22;724;49.910;12.530;2023-02-18T14:57:49;7.80;1.00
1461;DHT22;724;49.910;12.530;2023-02-18T15:00:18;7.80;1.00
1461;DHT22;724;49.910;12.530;2023-02-18T15:02:48;7.80;4.30
1461;DHT22;724;49.910;12.530;2023-02-18T15:05:19;7.70;22.40
1461;DHT22;724;49.910;12.530;2023-02-18T15:07:57;7.70;70.70
1461;DHT22;724;49.910;12.530;2023-02-18T15:10:32;7.70;99.90
1461;DHT22;724;49.910;12.530;2023-02-18T15:13:01;7.60;99.90
1461;DHT22;724;49.910;12.530;2023-02-18T15:15:28;7.60;99.90
1461;DHT22;724;49.910;12.530;2023-02-18T15:17:55;7.50;99.90
1461;DHT22;724;49.910;12.530;2023-02-18T15:20:23;7.50;99.90
1461;DHT22;724;49.910;12.530;2023-02-18T15:22:50;7.50;99.90
1461;DHT22;724;49.910;12.530;2023-02-18T15:25:16;7.50;99.90
1461;DHT22;724;49.910;12.530;2023-02-18T15:27:43;7.50;99.90
1461;DHT22;724;49.910;12.530;2023-02-18T15:30:24;7.50;99.90
1461;DHT22;724;49.910;12.530;2023-02-18T15:32:53;7.50;99.90
1461;DHT22;724;49.910;12.530;2023-02-18T15:35:24;7.40;99.90
1461;DHT22;724;49.910;12.530;2023-02-18T15:37:55;7.40;99.90
1461;DHT22;724;49.910;12.530;2023-02-18T15:40:31;7.40;99.90
1461;DHT22;724;49.910;12.530;2023-02-18T15:43:01;7.40;99.90
1461;DHT22;724;49.910;12.530;2023-02-18T15:45:32;7.40;99.90
1461;DHT22;724;49.910;12.530;2023-02-18T15:48:00;7.30;99.90
1461;DHT22;724;49.910;12.530;2023-02-18T15:50:30;7.30;99.90
1461;DHT22;724;49.910;12.530;2023-02-18T15:53:04;7.30;99.90
1461;DHT22;724;49.910;12.530;2023-02-18T15:55:34;7.30;99.90
1461;DHT22;724;49.910;12.530;2023-02-18T15:58:04;7.30;1.00
1461;DHT22;724;49.910;12.530;2023-02-18T16:00:38;7.30;1.00
1461;DHT22;724;49.910;12.530;2023-02-18T16:03:12;7.20;1.00
1461;DHT22;724;49.910;12.530;2023-02-18T16:05:42;7.20;1.00
1461;DHT22;724;49.910;12.530;2023-02-18T16:08:14;7.20;1.00
1461;DHT22;724;49.910;12.530;2023-02-18T16:10:45;7.20;1.00
1461;DHT22;724;49.910;12.530;2023-02-18T16:13:14;7.20;1.00
1461;DHT22;724;49.910;12.530;2023-02-18T16:15:43;7.20;1.00
1461;DHT22;724;49.910;12.530;2023-02-18T16:18:24;7.20;1.00
1461;DHT22;724;49.910;12.530;2023-02-18T16:20:55;7.20;1.00
1461;DHT22;724;49.910;12.530;2023-02-18T16:23:29;7.20;1.00
1461;DHT22;724;49.910;12.530;2023-02-18T16:26:22;7.20;1.00
1461;DHT22;724;49.910;12.530;2023-02-18T16:28:52;7.20;1.00
1461;DHT22;724;49.910;12.530;2023-02-18T16:31:20;7.20;1.00
1461;DHT22;724;49.910;12.530;2023-02-18T16:33:47;7.20;1.00
1461;DHT22;724;49.910;12.530;2023-02-18T16:36:16;7.10;1.00
1461;DHT22;724;49.910;12.530;2023-02-18T16:38:44;7.10;1.00
1461;DHT22;724;49.910;12.530;2023-02-18T16:41:12;7.10;1.00
1461;DHT22;724;49.910;12.530;2023-02-18T16:43:40;7.10;1.00
1461;DHT22;724;49.910;12.530;2023-02-18T16:46:09;7.10;1.00
1461;DHT22;724;49.910;12.530;2023-02-18T16:48:41;7.10;1.00
1461;DHT22;724;49.910;12.530;2023-02-18T16:51:11;7.10;1.00
1461;DHT22;724;49.910;12.530;2023-02-18T16:53:39;7.10;1.00
1461;DHT22;724;49.910;12.530;2023-02-18T16:56:13;7.10;1.00
1461;DHT22;724;49.910;12.530;2023-02-18T16:58:40;7.10;1.00
1461;DHT22;724;49.910;12.530;2023-02-18T17:01:14;7.20;1.00